createdAt,value
2017-12-31T10:57:37.352Z,26.90
2017-12-31T11:00:04.030Z,26.70
2017-12-31T11:02:30.932Z,26.90
2017-12-31T11:04:58.540Z,27.40
2017-12-31T11:07:25.186Z,27.10
2017-12-31T11:09:51.853Z,27.00
2017-12-31T11:12:18.532Z,25.70
2017-12-31T11:14:45.230Z,25.30
2017-12-31T11:17:11.899Z,25.50
2017-12-31T11:19:38.572Z,25.70
2017-12-31T11:22:06.307Z,26.40
2017-12-31T11:24:32.967Z,26.10
2017-12-31T11:26:59.785Z,26.20
2017-12-31T11:29:27.453Z,26.40
2017-12-31T11:31:54.255Z,27.00
2017-12-31T11:34:21.073Z,26.60
2017-12-31T11:36:47.894Z,25.90
2017-12-31T11:39:14.612Z,25.30
2017-12-31T11:41:41.343Z,25.20
2017-12-31T11:44:08.195Z,26.00
2017-12-31T11:46:34.906Z,27.00
2017-12-31T11:49:01.635Z,27.70
2017-12-31T11:51:28.541Z,28.50
2017-12-31T11:53:57.017Z,29.20
2017-12-31T11:56:23.753Z,29.10
2017-12-31T11:58:51.209Z,30.50
2017-12-31T12:01:18.646Z,31.10
2017-12-31T12:03:45.344Z,31.10
2017-12-31T12:06:12.112Z,31.50
2017-12-31T12:08:38.758Z,31.40
2017-12-31T12:11:05.485Z,32.20
2017-12-31T12:13:32.146Z,33.00
2017-12-31T12:15:58.882Z,32.60
2017-12-31T12:18:25.734Z,32.60
2017-12-31T12:20:52.416Z,32.20
2017-12-31T12:23:19.855Z,32.00
2017-12-31T12:25:46.564Z,32.00
2017-12-31T12:28:13.241Z,31.00
2017-12-31T12:30:39.943Z,30.60
2017-12-31T12:33:06.665Z,30.00
2017-12-31T12:35:34.128Z,29.80
2017-12-31T12:38:00.797Z,29.90
2017-12-31T12:40:27.458Z,30.20
2017-12-31T12:42:54.134Z,29.80
2017-12-31T12:45:21.541Z,29.90
2017-12-31T12:47:48.251Z,29.80
2017-12-31T12:50:15.663Z,30.00
2017-12-31T12:52:42.326Z,30.00
2017-12-31T12:55:09.028Z,29.80
2017-12-31T12:57:35.714Z,30.20
2017-12-31T13:00:02.402Z,31.10
2017-12-31T13:02:29.084Z,29.90
2017-12-31T13:04:55.741Z,31.90
2017-12-31T13:07:22.543Z,30.20
2017-12-31T13:09:49.199Z,30.50
2017-12-31T13:12:15.857Z,31.70
2017-12-31T13:14:42.504Z,32.00
2017-12-31T13:17:10.948Z,31.60
2017-12-31T13:19:37.715Z,33.20
2017-12-31T13:22:04.398Z,34.00
2017-12-31T13:24:31.801Z,35.30
2017-12-31T13:26:58.452Z,34.70
2017-12-31T13:29:25.119Z,36.20
2017-12-31T13:31:51.811Z,36.10
2017-12-31T13:34:18.490Z,36.70
2017-12-31T13:36:45.142Z,37.00
2017-12-31T13:39:11.835Z,38.80
2017-12-31T13:41:38.632Z,38.90
2017-12-31T13:44:05.323Z,40.50
2017-12-31T13:46:32.037Z,41.60
2017-12-31T13:49:00.325Z,44.60
2017-12-31T13:51:27.717Z,45.00
2017-12-31T13:53:54.510Z,44.80
2017-12-31T13:56:21.190Z,45.70
2017-12-31T13:58:47.861Z,46.70
2017-12-31T14:01:14.567Z,46.80
2017-12-31T14:03:42.026Z,48.60
2017-12-31T14:06:09.457Z,48.40
2017-12-31T14:08:36.180Z,48.40
2017-12-31T14:11:02.934Z,49.20
2017-12-31T14:13:29.642Z,49.90
2017-12-31T14:15:56.312Z,49.80
2017-12-31T14:18:23.016Z,51.30
2017-12-31T14:20:49.738Z,52.10
2017-12-31T14:23:17.156Z,51.90
2017-12-31T14:25:43.813Z,51.90
2017-12-31T14:28:10.505Z,53.00
2017-12-31T14:30:37.169Z,54.00
2017-12-31T14:33:03.813Z,53.70
2017-12-31T14:35:30.492Z,54.60
2017-12-31T14:37:58.049Z,55.00
2017-12-31T14:40:24.711Z,55.00
2017-12-31T14:42:51.407Z,55.20
2017-12-31T14:45:18.148Z,55.90
2017-12-31T14:47:45.604Z,56.20
2017-12-31T14:50:12.284Z,56.20
2017-12-31T14:52:38.956Z,58.90
2017-12-31T14:55:06.365Z,58.00
2017-12-31T14:57:33.053Z,58.00
2017-12-31T15:00:00.493Z,59.80
2017-12-31T15:02:27.162Z,59.80
2017-12-31T15:04:53.943Z,62.80
2017-12-31T15:07:20.597Z,62.30
2017-12-31T15:09:47.274Z,65.00
2017-12-31T15:12:13.980Z,64.70
2017-12-31T15:14:40.719Z,65.90
2017-12-31T15:17:07.369Z,66.50
2017-12-31T15:19:34.079Z,66.60
2017-12-31T15:22:01.506Z,67.50
2017-12-31T15:24:29.653Z,67.90
2017-12-31T15:26:56.333Z,67.90
2017-12-31T15:29:23.124Z,68.40
2017-12-31T15:31:49.794Z,69.60
2017-12-31T15:34:16.467Z,70.30
2017-12-31T15:36:43.175Z,70.80
2017-12-31T15:39:09.830Z,72.20
2017-12-31T15:41:36.465Z,71.70
2017-12-31T15:44:03.164Z,71.40
2017-12-31T15:46:29.834Z,71.90
2017-12-31T15:48:56.565Z,72.80
2017-12-31T15:51:23.973Z,74.70
2017-12-31T15:53:50.656Z,74.70
2017-12-31T15:56:17.546Z,74.10
2017-12-31T15:58:45.161Z,76.00
2017-12-31T16:01:12.553Z,75.10
2017-12-31T16:03:39.229Z,75.00
2017-12-31T16:06:05.949Z,76.80
2017-12-31T16:08:32.585Z,76.50
2017-12-31T16:10:59.252Z,77.80
2017-12-31T16:13:25.946Z,78.90
2017-12-31T16:15:53.396Z,79.60
2017-12-31T16:18:22.793Z,81.00
2017-12-31T16:20:52.262Z,82.30
2017-12-31T16:23:21.786Z,83.30
2017-12-31T16:25:50.213Z,85.60
2017-12-31T16:28:17.935Z,85.40
2017-12-31T16:30:45.314Z,85.40
2017-12-31T16:33:13.166Z,86.80
2017-12-31T16:35:40.335Z,86.60
2017-12-31T16:38:09.622Z,87.70
2017-12-31T16:40:36.306Z,87.70
2017-12-31T16:43:03.757Z,89.50
2017-12-31T16:45:31.202Z,89.60
2017-12-31T16:47:57.899Z,89.50
2017-12-31T16:50:24.621Z,90.40
2017-12-31T16:52:51.309Z,90.90
2017-12-31T16:55:18.047Z,91.00
2017-12-31T16:57:44.716Z,91.30
2017-12-31T17:00:11.398Z,90.60
2017-12-31T17:02:38.067Z,90.40
2017-12-31T17:05:04.778Z,91.00
2017-12-31T17:07:31.472Z,91.50
2017-12-31T17:09:58.209Z,91.70
2017-12-31T17:12:24.877Z,91.60
2017-12-31T17:14:53.165Z,91.60
2017-12-31T17:17:20.489Z,91.60
2017-12-31T17:19:47.255Z,91.80
2017-12-31T17:22:13.924Z,91.80
2017-12-31T17:24:40.624Z,92.40
2017-12-31T17:27:07.307Z,92.60
2017-12-31T17:29:34.736Z,93.10
2017-12-31T17:32:01.412Z,93.10
2017-12-31T17:34:28.090Z,93.40
2017-12-31T17:36:54.775Z,93.60
2017-12-31T17:39:22.252Z,94.10
2017-12-31T17:41:49.641Z,94.40
2017-12-31T17:44:16.340Z,94.40
2017-12-31T17:46:44.002Z,94.70
2017-12-31T17:49:11.469Z,95.50
2017-12-31T17:51:38.160Z,95.50
2017-12-31T17:54:04.845Z,96.00
2017-12-31T17:56:31.555Z,96.10
2017-12-31T17:58:58.222Z,96.20
2017-12-31T18:01:24.960Z,96.40
2017-12-31T18:03:51.658Z,96.40
2017-12-31T18:06:18.295Z,96.80
2017-12-31T18:08:45.050Z,97.10
2017-12-31T18:11:11.781Z,96.90
2017-12-31T18:13:39.175Z,96.80
2017-12-31T18:16:05.931Z,96.80
2017-12-31T18:18:32.634Z,96.90
2017-12-31T18:20:59.291Z,97.20
2017-12-31T18:23:25.993Z,97.10
2017-12-31T18:25:52.753Z,97.10
2017-12-31T18:28:19.446Z,97.00
2017-12-31T18:30:46.104Z,96.90
2017-12-31T18:33:12.828Z,96.90
2017-12-31T18:35:40.517Z,97.00
2017-12-31T18:38:07.207Z,97.20
2017-12-31T18:40:33.955Z,97.10
2017-12-31T18:43:01.502Z,97.30
2017-12-31T18:45:28.928Z,98.30
2017-12-31T18:47:55.596Z,98.30
2017-12-31T18:50:23.026Z,98.70
2017-12-31T18:52:49.669Z,98.70
2017-12-31T18:55:16.431Z,98.80
2017-12-31T18:57:43.103Z,99.00
2017-12-31T19:00:09.801Z,99.40
2017-12-31T19:02:36.487Z,99.30
2017-12-31T19:05:03.986Z,99.30
2017-12-31T19:07:30.826Z,99.30
2017-12-31T19:09:57.481Z,99.20
2017-12-31T19:12:24.202Z,99.20
2017-12-31T19:14:50.986Z,99.50
2017-12-31T19:17:19.122Z,99.70
2017-12-31T19:19:45.785Z,99.90
2017-12-31T19:22:12.978Z,99.90
2017-12-31T19:24:39.657Z,99.90
2017-12-31T19:27:06.328Z,99.90
2017-12-31T19:29:33.129Z,99.90
2017-12-31T19:32:00.617Z,99.90
2017-12-31T19:34:27.366Z,99.90
2017-12-31T19:36:54.058Z,99.90
2017-12-31T19:39:20.771Z,99.90
2017-12-31T19:41:47.600Z,99.90
2017-12-31T19:44:14.255Z,99.90
2017-12-31T19:46:40.961Z,99.90
2017-12-31T19:49:07.610Z,99.90
2017-12-31T19:51:34.282Z,99.90
2017-12-31T19:54:00.982Z,99.90
2017-12-31T19:56:29.235Z,99.90
2017-12-31T19:58:55.902Z,99.90
2017-12-31T20:01:23.342Z,99.90
2017-12-31T20:03:50.015Z,99.90
2017-12-31T20:06:16.741Z,99.90
2017-12-31T20:08:44.146Z,99.90
2017-12-31T20:11:10.837Z,99.90
2017-12-31T20:13:37.507Z,99.90
2017-12-31T20:16:04.264Z,99.90
2017-12-31T20:18:30.934Z,99.90
2017-12-31T20:20:57.817Z,99.90
2017-12-31T20:23:24.467Z,99.90
2017-12-31T20:25:51.904Z,99.90
2017-12-31T20:28:18.668Z,99.90
2017-12-31T20:30:46.080Z,99.90
2017-12-31T20:33:12.742Z,99.90
2017-12-31T20:35:39.439Z,99.90
2017-12-31T20:38:06.211Z,99.90
2017-12-31T20:40:33.736Z,99.90
2017-12-31T20:43:00.491Z,99.90
2017-12-31T20:45:27.150Z,99.90
2017-12-31T20:47:53.833Z,99.90
2017-12-31T20:50:20.641Z,99.90
2017-12-31T20:52:47.324Z,99.90
2017-12-31T20:55:14.046Z,99.90
2017-12-31T20:57:41.768Z,99.90
2017-12-31T21:00:08.426Z,99.90
2017-12-31T21:02:35.138Z,99.90
2017-12-31T21:05:02.550Z,99.90
2017-12-31T21:07:29.237Z,99.90
2017-12-31T21:09:57.656Z,99.90
2017-12-31T21:12:24.430Z,99.90
2017-12-31T21:14:51.120Z,99.90
2017-12-31T21:17:18.513Z,99.90
2017-12-31T21:19:45.224Z,99.90
2017-12-31T21:22:12.648Z,99.90
2017-12-31T21:24:39.433Z,99.90
2017-12-31T21:27:07.901Z,99.90
2017-12-31T21:29:35.359Z,99.90
2017-12-31T21:32:02.048Z,99.90
2017-12-31T21:34:28.729Z,99.90
2017-12-31T21:36:55.396Z,99.90
2017-12-31T21:39:22.817Z,99.90
2017-12-31T21:41:49.528Z,99.90
2017-12-31T21:44:16.299Z,99.90
2017-12-31T21:46:42.954Z,99.90
2017-12-31T21:49:09.633Z,99.90
2017-12-31T21:51:37.094Z,99.90
2017-12-31T21:54:04.526Z,99.90
2017-12-31T21:56:31.283Z,99.90
2017-12-31T21:58:57.993Z,99.90
2017-12-31T22:01:24.699Z,99.90
2017-12-31T22:03:52.137Z,99.90
2017-12-31T22:06:19.573Z,99.90
2017-12-31T22:08:46.257Z,99.90
2017-12-31T22:11:13.773Z,99.90
2017-12-31T22:13:40.445Z,99.90
2017-12-31T22:16:07.937Z,99.90
2017-12-31T22:18:34.665Z,99.90
2017-12-31T22:21:02.279Z,99.90
2017-12-31T22:23:28.934Z,99.90
2017-12-31T22:25:56.553Z,99.90
2017-12-31T22:28:23.232Z,99.90
2017-12-31T22:30:49.892Z,99.90
2017-12-31T22:33:16.613Z,99.90
2017-12-31T22:35:43.295Z,99.90
2017-12-31T22:38:10.269Z,99.90
2017-12-31T22:40:36.938Z,99.90
2017-12-31T22:43:03.639Z,99.90
2017-12-31T22:45:31.138Z,99.90
2017-12-31T22:47:57.908Z,99.90
2017-12-31T22:50:24.537Z,99.90
2017-12-31T22:52:51.190Z,99.90
2017-12-31T22:55:17.921Z,99.90
2017-12-31T22:57:44.628Z,99.90
2017-12-31T23:00:12.033Z,99.90
2017-12-31T23:02:38.726Z,99.90
2017-12-31T23:05:06.109Z,99.90
2017-12-31T23:07:32.789Z,99.90
2017-12-31T23:10:00.416Z,99.90
2017-12-31T23:12:27.928Z,99.90
2017-12-31T23:14:54.582Z,99.90
2017-12-31T23:17:22.030Z,99.90
2017-12-31T23:19:48.729Z,99.90
2017-12-31T23:22:15.402Z,99.90
2017-12-31T23:24:42.190Z,99.90
2017-12-31T23:27:09.636Z,99.90
2017-12-31T23:29:36.567Z,99.90
2017-12-31T23:32:03.290Z,99.90
2017-12-31T23:34:30.095Z,99.90
2017-12-31T23:36:57.511Z,99.90
2017-12-31T23:39:24.204Z,99.90
2017-12-31T23:41:50.906Z,99.90
2017-12-31T23:44:17.649Z,99.90
2017-12-31T23:46:44.362Z,99.90
2017-12-31T23:49:11.101Z,99.90
2017-12-31T23:51:37.799Z,99.90
2017-12-31T23:54:04.506Z,99.90
2017-12-31T23:56:31.158Z,99.90
2017-12-31T23:58:57.867Z,99.90
